Time;durP1;ratioP1;P1;durP2;ratioP2;P2;SDS_P1;SDS_P2;PMS_P1;PMS_P2;Temp;Humidity;BMP_temperature;BMP_pressure;BME280_temperature;BME280_humidity;BME280_pressure;Samples;Min_cycle;Max_cycle;Signal;HPM_P1;HPM_P2
2021/04/15 00:01:14;;;;;;;344.27;86.22;;;3.60;99.90;;;;;;5064658;28;20281;-74
2021/04/15 00:03:41;;;;;;;342.27;87.18;;;3.60;99.90;;;;;;5064368;28;20237;-74
2021/04/15 00:06:11;;;;;;;346.30;81.65;;;3.60;99.90;;;;;;5059939;28;20201;-74
2021/04/15 00:08:38;;;;;;;340.75;82.88;;;3.60;99.90;;;;;;5064114;28;20281;-75
2021/04/15 00:11:04;;;;;;;358.17;93.07;;;3.50;99.90;;;;;;5064330;28;20209;-75
2021/04/15 00:13:34;;;;;;;338.50;84.47;;;3.40;99.90;;;;;;5060868;28;20552;-75
2021/04/15 00:16:00;;;;;;;366.08;99.50;;;3.40;99.90;;;;;;5064143;28;20205;-75
2021/04/15 00:18:28;;;;;;;367.77;99.30;;;3.30;99.90;;;;;;5064210;28;20197;-75
2021/04/15 00:20:55;;;;;;;340.50;84.05;;;3.40;99.90;;;;;;5064733;28;20205;-75
2021/04/15 00:23:22;;;;;;;364.38;99.55;;;3.30;99.90;;;;;;5064049;28;20201;-76
2021/04/15 00:25:49;;;;;;;371.83;97.32;;;3.30;99.90;;;;;;5063163;28;20229;-76
2021/04/15 00:28:16;;;;;;;360.65;90.57;;;3.30;99.90;;;;;;5064229;28;20662;-75
2021/04/15 00:30:43;;;;;;;339.90;84.78;;;3.30;99.90;;;;;;5064836;28;20255;-75
2021/04/15 00:33:11;;;;;;;348.98;88.40;;;3.20;99.90;;;;;;5064203;28;20225;-75
2021/04/15 00:35:39;;;;;;;356.20;89.32;;;3.20;99.90;;;;;;5064695;28;20224;-75
2021/04/15 00:38:07;;;;;;;372.83;93.55;;;3.10;99.90;;;;;;5059327;28;20983;-75
2021/04/15 00:40:36;;;;;;;361.27;95.88;;;3.10;99.90;;;;;;5063672;28;20206;-75
2021/04/15 00:43:03;;;;;;;358.75;90.32;;;3.00;99.90;;;;;;5064768;28;20612;-75
2021/04/15 00:45:31;;;;;;;362.38;94.15;;;3.00;99.90;;;;;;5064059;28;20224;-75
2021/04/15 00:48:03;;;;;;;350.83;92.97;;;2.90;99.90;;;;;;5063956;28;20216;-75
2021/04/15 00:50:34;;;;;;;368.83;101.55;;;2.90;99.90;;;;;;5063740;28;20669;-75
2021/04/15 00:53:05;;;;;;;351.60;91.57;;;2.80;99.90;;;;;;5058968;28;20201;-75
2021/04/15 00:55:34;;;;;;;362.42;94.93;;;2.70;99.90;;;;;;5063912;28;20251;-75
2021/04/15 00:58:03;;;;;;;361.38;95.60;;;2.70;99.90;;;;;;5058264;28;20568;-75
2021/04/15 01:00:31;;;;;;;367.02;96.68;;;2.80;99.90;;;;;;5063332;28;20570;-75
2021/04/15 01:03:00;;;;;;;336.77;85.20;;;2.70;99.90;;;;;;5062766;28;20252;-75
2021/04/15 01:05:31;;;;;;;345.52;86.72;;;2.60;99.90;;;;;;5063394;28;20218;-75
2021/04/15 01:07:58;;;;;;;367.98;95.07;;;2.60;99.90;;;;;;5058982;28;20213;-75
2021/04/15 01:10:28;;;;;;;336.23;77.22;;;2.60;99.90;;;;;;5062412;28;20228;-75
2021/04/15 01:13:11;;;;;;;337.40;79.57;;;2.60;99.90;;;;;;5063582;28;20204;-75
2021/04/15 01:15:50;;;;;;;348.83;85.28;;;2.60;99.90;;;;;;5057942;28;20205;-75
2021/04/15 01:18:24;;;;;;;351.38;84.82;;;2.50;99.90;;;;;;5063697;28;20219;-75
2021/04/15 01:21:35;;;;;;;350.33;87.43;;;2.40;99.90;;;;;;5063498;28;20208;-75
2021/04/15 01:24:06;;;;;;;349.38;83.57;;;2.40;99.90;;;;;;5020046;28;20206;-75
2021/04/15 01:26:54;;;;;;;362.25;92.75;;;2.40;99.90;;;;;;5021576;28;20214;-75
2021/04/15 01:29:30;;;;;;;355.65;98.05;;;2.40;99.90;;;;;;5022291;28;20225;-76
2021/04/15 01:32:06;;;;;;;362.00;96.70;;;2.40;99.90;;;;;;5020731;28;20218;-76
2021/04/15 01:34:40;;;;;;;363.67;94.68;;;2.40;99.90;;;;;;5016151;28;20202;-77
2021/04/15 01:37:13;;;;;;;362.83;90.40;;;2.40;99.90;;;;;;5016242;28;20208;-77
2021/04/15 01:39:46;;;;;;;353.02;84.25;;;2.40;99.90;;;;;;5022361;28;20282;-77
2021/04/15 01:42:20;;;;;;;352.10;86.60;;;2.20;99.90;;;;;;5022446;28;20229;-77
2021/04/15 01:44:52;;;;;;;355.80;88.85;;;2.20;99.90;;;;;;5021971;28;20658;-77
2021/04/15 01:47:24;;;;;;;360.67;85.18;;;2.20;99.90;;;;;;5020758;28;20776;-77
2021/04/15 01:49:57;;;;;;;360.23;93.15;;;2.20;99.90;;;;;;5021944;28;20218;-77
2021/04/15 01:52:25;;;;;;;332.73;74.43;;;2.20;99.90;;;;;;5020336;28;20274;-76
2021/04/15 01:54:56;;;;;;;349.10;88.05;;;2.20;99.90;;;;;;5020328;28;20203;-76
2021/04/15 01:57:27;;;;;;;343.05;87.47;;;2.20;99.90;;;;;;5021130;28;20203;-75
2021/04/15 02:00:00;;;;;;;343.35;82.35;;;2.10;99.90;;;;;;5037120;28;20216;-75
2021/04/15 02:02:30;;;;;;;356.08;89.93;;;2.10;99.90;;;;;;5058981;28;20292;-76
2021/04/15 02:05:06;;;;;;;378.13;101.30;;;2.10;99.90;;;;;;5062970;28;20229;-76
2021/04/15 02:07:39;;;;;;;375.35;96.43;;;2.10;99.90;;;;;;5061793;28;20209;-76
2021/04/15 02:10:07;;;;;;;371.52;91.88;;;2.20;99.90;;;;;;5061732;28;20260;-76
2021/04/15 02:12:37;;;;;;;367.05;92.05;;;2.10;99.90;;;;;;5061722;28;20197;-76
2021/04/15 02:15:10;;;;;;;367.60;89.55;;;2.10;99.90;;;;;;5063857;28;20601;-76
2021/04/15 02:17:39;;;;;;;360.55;87.20;;;2.00;99.90;;;;;;5062637;28;20225;-76
2021/04/15 02:20:10;;;;;;;378.27;92.18;;;2.00;99.90;;;;;;5063342;28;20691;-76
2021/04/15 02:22:41;;;;;;;379.55;98.13;;;2.00;99.90;;;;;;5061290;28;20208;-75
2021/04/15 02:25:15;;;;;;;367.63;89.32;;;2.00;99.90;;;;;;5059522;28;20225;-75
2021/04/15 02:27:45;;;;;;;352.40;82.03;;;1.90;99.90;;;;;;5061877;28;20208;-75
2021/04/15 02:30:20;;;;;;;351.08;90.50;;;2.00;99.90;;;;;;5056453;28;20198;-76
2021/04/15 02:32:55;;;;;;;374.42;96.88;;;2.00;99.90;;;;;;5058958;28;20196;-76
2021/04/15 02:35:27;;;;;;;345.70;83.70;;;1.90;99.90;;;;;;5062813;28;20201;-75
2021/04/15 02:37:58;;;;;;;369.35;93.78;;;2.00;99.90;;;;;;5061935;28;20201;-76
2021/04/15 02:40:27;;;;;;;377.77;97.35;;;2.00;99.90;;;;;;5061673;28;20198;-75
2021/04/15 02:42:56;;;;;;;345.77;82.85;;;1.90;99.90;;;;;;5063033;28;20227;-75
2021/04/15 02:45:30;;;;;;;368.95;93.70;;;1.90;99.90;;;;;;5062839;28;20225;-75
2021/04/15 02:48:00;;;;;;;353.98;83.00;;;1.90;99.90;;;;;;5066440;28;20209;-75
2021/04/15 02:50:27;;;;;;;337.23;77.47;;;1.90;99.90;;;;;;5067059;28;20201;-75
2021/04/15 02:53:02;;;;;;;363.05;90.28;;;1.80;99.90;;;;;;5066571;28;20208;-75
2021/04/15 02:55:31;;;;;;;366.02;89.65;;;1.80;99.90;;;;;;5062481;28;20205;-76
2021/04/15 02:58:05;;;;;;;349.17;84.85;;;1.80;99.90;;;;;;5067003;28;20205;-76
2021/04/15 03:00:37;;;;;;;362.92;86.70;;;1.80;99.90;;;;;;5066855;28;20266;-76
2021/04/15 03:03:07;;;;;;;346.38;82.57;;;1.70;99.90;;;;;;5068375;28;20220;-76
2021/04/15 03:05:38;;;;;;;351.80;83.10;;;1.70;99.90;;;;;;5078270;28;20217;-75
2021/04/15 03:08:06;;;;;;;332.48;76.55;;;1.80;99.90;;;;;;5077320;28;20232;-75
2021/04/15 03:10:36;;;;;;;361.80;92.05;;;1.70;99.90;;;;;;5073561;28;20191;-75
2021/04/15 03:13:08;;;;;;;374.33;92.80;;;1.80;99.90;;;;;;5078630;28;20205;-75
2021/04/15 03:15:41;;;;;;;372.63;93.70;;;1.70;99.90;;;;;;5078297;28;20212;-76
2021/04/15 03:18:14;;;;;;;345.05;79.88;;;1.70;99.90;;;;;;5068745;28;20670;-76
2021/04/15 03:20:45;;;;;;;361.63;86.47;;;1.70;99.90;;;;;;5066464;28;20269;-76
2021/04/15 03:23:18;;;;;;;344.38;76.75;;;1.60;99.90;;;;;;5066339;28;20281;-76
2021/04/15 03:25:45;;;;;;;368.70;91.47;;;1.70;99.90;;;;;;5060573;28;20229;-75
2021/04/15 03:28:15;;;;;;;338.45;79.40;;;1.70;99.90;;;;;;5062469;28;20197;-75
2021/04/15 03:30:47;;;;;;;362.95;86.35;;;1.70;99.90;;;;;;5065683;28;20671;-76
2021/04/15 03:33:19;;;;;;;375.85;91.78;;;1.70;99.90;;;;;;5065057;28;20265;-76
2021/04/15 03:35:51;;;;;;;338.30;79.75;;;1.70;99.90;;;;;;5065458;28;20206;-76
2021/04/15 03:38:20;;;;;;;341.15;80.72;;;1.70;99.90;;;;;;5065302;28;20752;-75
2021/04/15 03:40:51;;;;;;;371.85;92.45;;;1.70;99.90;;;;;;5065147;28;20198;-76
2021/04/15 03:43:22;;;;;;;335.02;78.07;;;1.70;99.90;;;;;;5064794;28;20655;-75
2021/04/15 03:45:57;;;;;;;358.67;84.82;;;1.70;99.90;;;;;;5065418;28;20675;-75
2021/04/15 03:48:28;;;;;;;331.40;73.00;;;1.60;99.90;;;;;;5064203;28;20197;-74
2021/04/15 03:50:59;;;;;;;369.65;83.07;;;1.60;99.90;;;;;;5061056;28;21069;-75
2021/04/15 03:53:31;;;;;;;370.63;85.03;;;1.60;99.90;;;;;;5063257;28;20201;-75
2021/04/15 03:56:02;;;;;;;360.20;77.80;;;1.60;99.90;;;;;;5060028;28;20202;-75
2021/04/15 03:58:34;;;;;;;353.48;83.13;;;1.60;99.90;;;;;;5064174;28;20231;-75
2021/04/15 04:01:08;;;;;;;363.65;88.07;;;1.50;99.90;;;;;;5057735;28;20205;-75
2021/04/15 04:03:37;;;;;;;369.38;92.10;;;1.50;99.90;;;;;;5064759;28;20256;-74
2021/04/15 04:06:08;;;;;;;367.85;91.68;;;1.50;99.90;;;;;;5064326;28;20596;-74
2021/04/15 04:08:43;;;;;;;365.92;94.75;;;1.40;99.90;;;;;;5058752;28;20193;-74
2021/04/15 04:11:13;;;;;;;370.52;91.15;;;1.40;99.90;;;;;;5064552;28;20258;-74
2021/04/15 04:13:45;;;;;;;367.70;86.75;;;1.40;99.90;;;;;;5063888;28;20205;-74
2021/04/15 04:16:21;;;;;;;344.20;79.40;;;1.40;99.90;;;;;;5064728;28;20205;-74
2021/04/15 04:18:54;;;;;;;354.15;82.15;;;1.40;99.90;;;;;;5063355;28;20220;-74
2021/04/15 04:21:26;;;;;;;379.10;92.90;;;1.50;99.90;;;;;;5064991;28;20205;-74
2021/04/15 04:24:00;;;;;;;372.92;94.78;;;1.50;99.90;;;;;;5064945;28;20205;-74
2021/04/15 04:26:32;;;;;;;361.15;88.38;;;1.50;99.90;;;;;;5064733;28;20225;-74
2021/04/15 04:29:21;;;;;;;362.08;88.68;;;1.40;99.90;;;;;;5064003;28;20224;-74
2021/04/15 04:31:52;;;;;;;365.33;85.57;;;1.30;99.90;;;;;;5064371;28;20209;-74
2021/04/15 04:34:20;;;;;;;367.77;87.53;;;1.30;99.90;;;;;;5063953;28;20206;-74
2021/04/15 04:36:49;;;;;;;362.98;93.78;;;1.30;99.90;;;;;;5064580;28;20205;-74
2021/04/15 04:39:17;;;;;;;335.15;75.78;;;1.30;99.90;;;;;;5063211;28;20674;-75
2021/04/15 04:42:04;;;;;;;371.60;99.50;;;1.30;99.90;;;;;;5063546;28;20463;-75
2021/04/15 04:44:37;;;;;;;366.95;87.65;;;1.30;99.90;;;;;;5063942;28;20495;-75
2021/04/15 04:47:10;;;;;;;375.63;91.18;;;1.40;99.90;;;;;;5064027;28;20205;-74
2021/04/15 04:49:41;;;;;;;374.85;93.70;;;1.40;99.90;;;;;;5060886;28;20224;-74
2021/04/15 04:52:12;;;;;;;357.20;85.55;;;1.40;99.90;;;;;;5063895;28;20208;-74
2021/04/15 04:54:40;;;;;;;366.33;91.35;;;1.40;99.90;;;;;;5063941;28;20205;-74
2021/04/15 04:57:13;;;;;;;363.63;89.45;;;1.40;99.90;;;;;;5058994;28;20265;-75
2021/04/15 04:59:44;;;;;;;349.90;79.60;;;1.40;99.90;;;;;;5062874;28;20216;-74
2021/04/15 05:02:14;;;;;;;337.30;74.63;;;1.40;99.90;;;;;;5064174;28;20257;-74
2021/04/15 05:04:42;;;;;;;335.08;78.63;;;1.50;99.90;;;;;;5063128;28;20243;-75
2021/04/15 05:07:18;;;;;;;363.50;90.32;;;1.50;99.90;;;;;;5064113;28;20221;-74
2021/04/15 05:09:46;;;;;;;362.58;90.30;;;1.50;99.90;;;;;;5063493;28;20201;-75
2021/04/15 05:12:17;;;;;;;359.75;88.95;;;1.40;99.90;;;;;;5064309;28;20232;-75
2021/04/15 05:14:44;;;;;;;366.65;91.97;;;1.40;99.90;;;;;;5063027;28;20570;-75
2021/04/15 05:17:22;;;;;;;367.23;92.75;;;1.40;99.90;;;;;;5062398;28;20193;-74
2021/04/15 05:19:49;;;;;;;338.80;80.75;;;1.40;99.90;;;;;;5059555;28;20287;-74
2021/04/15 05:22:25;;;;;;;339.52;80.53;;;1.40;99.90;;;;;;5064384;28;20201;-74
2021/04/15 05:24:55;;;;;;;366.67;90.68;;;1.40;99.90;;;;;;5058190;28;20213;-74
2021/04/15 05:27:23;;;;;;;337.33;81.50;;;1.50;99.90;;;;;;5062618;28;20254;-74
2021/04/15 05:30:00;;;;;;;331.55;78.50;;;1.50;99.90;;;;;;5063042;28;20201;-74
2021/04/15 05:32:28;;;;;;;336.45;82.25;;;1.50;99.90;;;;;;5057326;28;20197;-74
2021/04/15 05:34:58;;;;;;;363.02;93.35;;;1.60;99.90;;;;;;5063023;28;20201;-74
2021/04/15 05:37:27;;;;;;;348.67;86.43;;;1.70;99.90;;;;;;5062286;28;20223;-74
2021/04/15 05:39:55;;;;;;;368.63;97.57;;;1.80;99.90;;;;;;5063127;28;20606;-75
2021/04/15 05:42:27;;;;;;;373.05;92.82;;;1.70;99.90;;;;;;5062864;28;20209;-74
2021/04/15 05:44:58;;;;;;;363.40;95.95;;;1.80;99.90;;;;;;5061735;28;20236;-73
2021/04/15 05:47:28;;;;;;;359.02;88.18;;;1.80;99.90;;;;;;5057655;28;20202;-74
2021/04/15 05:50:01;;;;;;;360.58;95.55;;;1.70;99.90;;;;;;5063011;28;20251;-74
2021/04/15 05:52:32;;;;;;;377.13;100.80;;;1.80;99.90;;;;;;5060591;28;20205;-74
2021/04/15 05:55:04;;;;;;;371.00;91.00;;;1.80;99.90;;;;;;5063980;28;20206;-73
2021/04/15 05:57:37;;;;;;;358.90;88.65;;;1.90;99.90;;;;;;5063198;28;20201;-74
2021/04/15 06:00:10;;;;;;;340.35;83.78;;;1.90;99.90;;;;;;5062956;28;20246;-74
2021/04/15 06:02:48;;;;;;;352.00;86.65;;;1.90;99.90;;;;;;5058837;28;20205;-73
2021/04/15 06:05:21;;;;;;;364.25;96.65;;;1.90;99.90;;;;;;5062690;28;20220;-73
2021/04/15 06:07:50;;;;;;;337.70;85.22;;;2.10;99.90;;;;;;5063221;28;20201;-73
2021/04/15 06:10:23;;;;;;;360.38;101.50;;;2.20;99.90;;;;;;5063333;28;20227;-73
2021/04/15 06:12:56;;;;;;;354.30;94.55;;;2.20;99.90;;;;;;5062500;28;20216;-73
2021/04/15 06:15:26;;;;;;;375.10;102.53;;;2.30;99.90;;;;;;5062478;28;20220;-74
2021/04/15 06:18:01;;;;;;;343.50;88.93;;;2.40;99.90;;;;;;5062996;28;22295;-74
2021/04/15 06:20:31;;;;;;;344.98;91.95;;;2.50;99.90;;;;;;5064727;28;20196;-74
2021/04/15 06:23:02;;;;;;;367.35;101.35;;;2.60;99.90;;;;;;5067155;28;20319;-74
2021/04/15 06:25:31;;;;;;;268.30;76.57;;;2.70;99.90;;;;;;5066895;28;20217;-74
2021/04/15 06:28:02;;;;;;;371.48;106.47;;;2.80;99.90;;;;;;5059453;28;20310;-74
2021/04/15 06:30:36;;;;;;;373.35;103.45;;;2.80;99.90;;;;;;5067942;28;20251;-74
2021/04/15 06:33:09;;;;;;;350.77;94.20;;;2.90;99.90;;;;;;5062386;28;20588;-74
2021/04/15 06:35:36;;;;;;;375.65;107.28;;;2.90;99.90;;;;;;5067177;28;20201;-74
2021/04/15 06:38:08;;;;;;;384.33;113.90;;;3.00;99.90;;;;;;5065532;28;20209;-74
2021/04/15 06:41:11;;;;;;;370.73;115.00;;;3.20;99.90;;;;;;5067139;28;20204;-74
2021/04/15 06:44:15;;;;;;;375.10;109.78;;;3.30;99.90;;;;;;5065894;28;20204;-74
2021/04/15 06:47:14;;;;;;;367.65;110.80;;;3.50;99.90;;;;;;5024269;28;20329;-74
2021/04/15 06:50:08;;;;;;;372.48;113.85;;;3.70;99.90;;;;;;5023629;28;20221;-74
2021/04/15 06:52:46;;;;;;;415.00;258.40;;;3.90;99.90;;;;;;5023287;28;20459;-74
2021/04/15 06:55:26;;;;;;;427.52;309.63;;;4.00;99.90;;;;;;5018357;28;20599;-74
2021/04/15 06:58:06;;;;;;;387.92;144.85;;;4.30;99.90;;;;;;5024871;28;20249;-74
2021/04/15 07:00:53;;;;;;;387.13;140.63;;;4.50;99.90;;;;;;5020021;28;20210;-74
2021/04/15 07:03:43;;;;;;;361.42;115.55;;;4.80;99.90;;;;;;5024054;28;20230;-75
2021/04/15 07:06:13;;;;;;;395.88;145.48;;;5.20;99.90;;;;;;5025416;28;20264;-75
2021/04/15 07:09:08;;;;;;;406.73;154.35;;;5.60;99.90;;;;;;5023959;28;20203;-74
2021/04/15 07:11:45;;;;;;;392.48;151.60;;;6.30;99.90;;;;;;5023360;28;20207;-74
2021/04/15 07:14:32;;;;;;;392.83;176.90;;;7.00;99.90;;;;;;5022751;28;20202;-74
2021/04/15 07:17:40;;;;;;;417.42;230.07;;;7.60;99.90;;;;;;5024049;28;20226;-75
2021/04/15 07:20:41;;;;;;;396.75;210.73;;;8.20;99.90;;;;;;4984451;28;20204;-75
2021/04/15 07:23:55;;;;;;;410.65;233.10;;;8.70;99.90;;;;;;5029383;28;20220;-75
2021/04/15 07:26:54;;;;;;;414.40;250.65;;;9.10;99.90;;;;;;4977898;28;20232;-75
2021/04/15 07:29:40;;;;;;;393.55;233.73;;;9.60;99.90;;;;;;4984888;28;20200;-75
2021/04/15 07:32:32;;;;;;;412.40;254.32;;;10.00;99.90;;;;;;4984369;28;20200;-75
2021/04/15 07:35:26;;;;;;;409.13;272.00;;;10.30;99.90;;;;;;4978951;28;20223;-75
2021/04/15 07:38:29;;;;;;;82.95;48.85;;;10.60;99.90;;;;;;4957858;28;20237;-74
2021/04/15 07:41:20;;;;;;;397.02;273.02;;;10.70;99.90;;;;;;4981248;28;20208;-75
2021/04/15 07:44:12;;;;;;;405.63;309.23;;;10.80;99.90;;;;;;4979347;28;20224;-75
2021/04/15 07:46:49;;;;;;;404.50;323.35;;;11.00;99.90;;;;;;4984025;28;20259;-75
2021/04/15 07:49:56;;;;;;;33.63;12.77;;;11.40;99.90;;;;;;4978645;28;20207;-75
2021/04/15 07:53:12;;;;;;;401.45;335.73;;;11.80;99.90;;;;;;4984159;28;20242;-74
2021/04/15 07:55:58;;;;;;;414.60;370.38;;;12.10;99.90;;;;;;4981365;28;20210;-74
2021/04/15 07:59:03;;;;;;;416.52;373.25;;;12.50;99.90;;;;;;5064780;28;20219;-75
2021/04/15 08:01:53;;;;;;;363.90;315.85;;;12.20;99.90;;;;;;5059356;28;20210;-75
2021/04/15 08:04:56;;;;;;;422.27;378.20;;;12.00;99.90;;;;;;5064769;28;20238;-75
2021/04/15 08:07:43;;;;;;;407.92;363.92;;;12.10;99.90;;;;;;5063843;28;20224;-74
2021/04/15 08:10:40;;;;;;;404.70;361.52;;;12.00;99.90;;;;;;5063810;28;20218;-75
2021/04/15 08:13:39;;;;;;;387.95;347.40;;;12.40;99.90;;;;;;5065116;28;20201;-75
2021/04/15 08:16:35;;;;;;;458.98;417.23;;;12.90;99.90;;;;;;5064164;28;20224;-75
2021/04/15 08:19:18;;;;;;;497.13;452.88;;;13.10;99.90;;;;;;5064503;28;20216;-74
2021/04/15 08:21:50;;;;;;;489.83;446.23;;;13.20;99.90;;;;;;5066617;28;20218;-75
2021/04/15 08:24:29;;;;;;;457.55;417.05;;;13.60;99.90;;;;;;5057985;28;20258;-76
2021/04/15 08:27:31;;;;;;;495.40;451.23;;;13.70;98.90;;;;;;5064710;28;20200;-75
2021/04/15 08:30:22;;;;;;;499.10;455.75;;;13.60;99.40;;;;;;5065203;28;20216;-75
2021/04/15 08:33:00;;;;;;;502.50;458.17;;;13.30;99.90;;;;;;5063604;28;20281;-75
2021/04/15 08:35:37;;;;;;;13.52;6.03;;;13.80;98.50;;;;;;5059287;28;20201;-75
2021/04/15 08:38:20;;;;;;;9.18;5.43;;;14.10;99.00;;;;;;5065351;28;20201;-75
2021/04/15 08:40:56;;;;;;;9.60;5.50;;;14.10;98.10;;;;;;5060938;28;20232;-75
2021/04/15 08:43:40;;;;;;;7.70;5.32;;;14.20;97.80;;;;;;5061051;28;20664;-75
2021/04/15 08:46:17;;;;;;;5.10;3.47;;;14.50;97.70;;;;;;5065168;28;20224;-75
2021/04/15 08:48:53;;;;;;;10.88;4.28;;;14.60;96.80;;;;;;5063995;28;20238;-75
2021/04/15 08:51:49;;;;;;;7.30;5.43;;;14.40;96.20;;;;;;5063687;28;20220;-75
2021/04/15 08:54:50;;;;;;;9.45;3.40;;;14.10;95.90;;;;;;5063444;28;20205;-75
2021/04/15 08:57:31;;;;;;;7.47;4.20;;;13.50;95.40;;;;;;5058924;28;20250;-75
2021/04/15 09:00:07;;;;;;;8.07;5.05;;;13.00;96.10;;;;;;5063924;28;20205;-75
2021/04/15 09:02:42;;;;;;;5.80;4.10;;;12.70;97.00;;;;;;5064371;28;20204;-75
2021/04/15 09:05:17;;;;;;;15.75;4.68;;;12.50;97.90;;;;;;5063155;28;20709;-75
2021/04/15 09:07:59;;;;;;;5.75;4.35;;;12.10;98.00;;;;;;5058323;28;20204;-75
2021/04/15 09:10:32;;;;;;;6.13;3.50;;;12.00;98.60;;;;;;5063385;28;20331;-75
2021/04/15 09:13:21;;;;;;;6.18;3.72;;;11.90;97.70;;;;;;5063717;28;20208;-75
2021/04/15 09:16:07;;;;;;;10.43;4.00;;;12.30;97.30;;;;;;5063650;28;20207;-75
2021/04/15 09:18:39;;;;;;;6.55;3.90;;;12.30;96.10;;;;;;5058997;28;20716;-75
2021/04/15 09:21:21;;;;;;;6.68;4.07;;;12.10;96.90;;;;;;5063865;28;20232;-75
2021/04/15 09:23:55;;;;;;;9.57;4.43;;;11.80;98.10;;;;;;5064177;28;20201;-75
2021/04/15 09:26:32;;;;;;;6.00;3.75;;;11.70;98.40;;;;;;5062817;28;20225;-75
2021/04/15 09:29:17;;;;;;;5.30;3.63;;;12.40;96.90;;;;;;5063674;28;20223;-75
2021/04/15 09:31:51;;;;;;;6.72;3.88;;;12.50;96.60;;;;;;5058410;28;20206;-75
2021/04/15 09:35:02;;;;;;;6.43;3.88;;;12.20;96.80;;;;;;5064128;28;20196;-75
2021/04/15 09:38:19;;;;;;;5.35;4.03;;;12.20;96.10;;;;;;5056935;28;20193;-75
2021/04/15 09:41:08;;;;;;;11.30;4.18;;;12.20;95.70;;;;;;5063641;28;20201;-75
2021/04/15 09:44:10;;;;;;;6.60;3.78;;;13.50;96.70;;;;;;5062911;28;20203;-75
2021/04/15 09:46:47;;;;;;;4.82;4.15;;;15.60;93.40;;;;;;5021530;28;20239;-75
2021/04/15 09:49:24;;;;;;;7.03;3.70;;;16.20;90.10;;;;;;5015484;28;20208;-75
2021/04/15 09:52:20;;;;;;;7.15;3.22;;;15.80;87.80;;;;;;5022715;28;20209;-75
2021/04/15 09:54:59;;;;;;;4.00;3.70;;;16.20;88.60;;;;;;4998714;28;20213;-75
2021/04/15 09:57:33;;;;;;;8.40;3.90;;;17.10;88.20;;;;;;5015619;28;20202;-75
2021/04/15 10:00:25;;;;;;;4.45;3.60;;;17.70;85.30;;;;;;5021651;28;20208;-75
2021/04/15 10:11:42;;;;;;;5.78;3.42;;;19.10;73.00;;;;;;5103986;28;20735;-75
2021/04/15 10:14:31;;;;;;;4.95;3.75;;;17.60;74.20;;;;;;5103503;28;20214;-75
2021/04/15 10:17:13;;;;;;;6.90;3.75;;;16.40;74.60;;;;;;5108540;28;20256;-74
2021/04/15 10:20:13;;;;;;;4.15;3.67;;;15.50;75.80;;;;;;5102494;28;20220;-75
2021/04/15 10:22:50;;;;;;;6.75;3.72;;;14.80;78.60;;;;;;5112496;28;20203;-75
2021/04/15 10:25:21;;;;;;;3.55;3.15;;;14.30;77.20;;;;;;5107212;28;20202;-75
2021/04/15 10:28:07;;;;;;;4.68;3.72;;;13.90;79.10;;;;;;5109784;28;20199;-75
2021/04/15 10:30:46;;;;;;;8.95;3.20;;;13.60;79.40;;;;;;5104173;28;20203;-74
2021/04/15 10:33:38;;;;;;;5.75;2.78;;;13.30;79.40;;;;;;5105123;28;20211;-74
2021/04/15 10:36:33;;;;;;;5.93;2.90;;;13.10;79.50;;;;;;5102070;28;20452;-74
2021/04/15 10:39:19;;;;;;;2.92;2.63;;;13.40;78.40;;;;;;5106445;28;20209;-74
2021/04/15 10:42:23;;;;;;;7.90;3.35;;;13.60;78.60;;;;;;5107638;28;20587;-75
2021/04/15 10:45:07;;;;;;;4.97;2.80;;;14.20;77.70;;;;;;5108730;28;20204;-75
2021/04/15 10:47:43;;;;;;;3.88;2.60;;;15.50;80.20;;;;;;5107943;28;20211;-75
2021/04/15 10:50:23;;;;;;;4.53;2.78;;;15.60;77.20;;;;;;5104261;28;20201;-74
2021/04/15 10:53:01;;;;;;;6.50;2.20;;;15.00;78.10;;;;;;5107557;28;20210;-74
2021/04/15 10:55:41;;;;;;;3.95;2.22;;;14.60;74.10;;;;;;5104423;28;20210;-74
2021/04/15 10:58:32;;;;;;;11.95;2.30;;;13.90;76.10;;;;;;5102593;28;20209;-74
2021/04/15 11:01:24;;;;;;;2.38;2.17;;;13.40;76.00;;;;;;5108361;28;20207;-74
2021/04/15 11:03:52;;;;;;;7.28;2.42;;;12.90;77.70;;;;;;5105648;28;20252;-74
2021/04/15 11:06:37;;;;;;;2.33;2.10;;;12.90;79.40;;;;;;5101999;28;20211;-74
2021/04/15 11:09:19;;;;;;;4.95;3.65;;;13.00;79.80;;;;;;5104424;28;20575;-74
2021/04/15 11:11:58;;;;;;;4.57;2.92;;;13.00;80.20;;;;;;5107825;28;20255;-74
2021/04/15 11:14:27;;;;;;;2.30;1.92;;;13.00;81.20;;;;;;5099316;28;20238;-74
2021/04/15 11:16:57;;;;;;;5.22;2.08;;;13.00;80.10;;;;;;5094553;28;20221;-74
2021/04/15 11:19:27;;;;;;;6.68;1.60;;;12.90;75.50;;;;;;5092440;28;20196;-74
2021/04/15 11:21:56;;;;;;;3.05;1.52;;;12.80;71.80;;;;;;5096190;28;20204;-74
2021/04/15 11:24:31;;;;;;;2.50;2.15;;;12.70;69.90;;;;;;5092245;28;20319;-74
2021/04/15 11:26:59;;;;;;;1.98;1.88;;;12.70;71.50;;;;;;5090838;28;20206;-74
2021/04/15 11:29:29;;;;;;;432.60;386.85;;;12.70;74.00;;;;;;5095104;28;20207;-74
2021/04/15 11:31:57;;;;;;;312.27;281.27;;;12.70;72.80;;;;;;5093904;28;20218;-74
2021/04/15 11:34:26;;;;;;;412.55;368.25;;;12.90;74.70;;;;;;5087973;28;20204;-74
2021/04/15 11:37:02;;;;;;;375.42;331.17;;;13.10;73.70;;;;;;5094491;28;20230;-74
2021/04/15 11:39:32;;;;;;;369.33;329.17;;;13.20;76.80;;;;;;5094070;28;20703;-74
2021/04/15 11:42:03;;;;;;;399.88;356.65;;;13.40;75.60;;;;;;5092136;28;20203;-73
2021/04/15 11:44:36;;;;;;;391.83;349.10;;;13.30;72.40;;;;;;5097099;28;20282;-74
2021/04/15 11:47:07;;;;;;;350.60;299.33;;;13.10;73.60;;;;;;5094220;28;20230;-74
2021/04/15 11:49:37;;;;;;;387.75;345.48;;;12.90;73.60;;;;;;5093065;28;20216;-73
2021/04/15 11:52:23;;;;;;;375.17;328.08;;;12.80;73.50;;;;;;5088885;28;20199;-74
2021/04/15 11:55:06;;;;;;;379.80;334.13;;;12.80;72.70;;;;;;5087753;28;20209;-73
2021/04/15 11:57:36;;;;;;;363.63;313.02;;;12.70;74.30;;;;;;5088131;28;20250;-74
2021/04/15 12:00:14;;;;;;;384.45;334.88;;;12.60;74.90;;;;;;5090699;28;20693;-74
2021/04/15 12:02:45;;;;;;;374.48;317.17;;;12.50;73.80;;;;;;5094526;28;20271;-73
2021/04/15 12:05:18;;;;;;;374.92;319.95;;;12.30;73.40;;;;;;5092781;28;20294;-74
2021/04/15 12:07:52;;;;;;;378.70;337.05;;;12.10;75.00;;;;;;5086780;28;20948;-74
2021/04/15 12:10:22;;;;;;;60.90;41.72;;;12.10;74.00;;;;;;5087815;28;20238;-74
2021/04/15 12:12:51;;;;;;;359.63;310.95;;;12.10;75.50;;;;;;5087237;28;20262;-74
2021/04/15 12:15:22;;;;;;;383.10;333.85;;;12.00;77.40;;;;;;5087757;28;20612;-74
2021/04/15 12:17:57;;;;;;;374.33;333.50;;;12.30;74.60;;;;;;5087699;28;20207;-74
2021/04/15 12:20:31;;;;;;;371.42;331.58;;;12.50;73.00;;;;;;5087303;28;20211;-74
2021/04/15 12:23:11;;;;;;;296.80;267.95;;;12.60;71.40;;;;;;5087352;28;20232;-74
2021/04/15 12:25:42;;;;;;;265.05;237.63;;;12.60;72.00;;;;;;5086487;28;20545;-74
2021/04/15 12:28:18;;;;;;;341.25;310.73;;;12.60;72.40;;;;;;5086308;28;20193;-73
2021/04/15 12:30:44;;;;;;;387.55;349.63;;;12.70;73.60;;;;;;5093483;28;20204;-74
2021/04/15 12:33:18;;;;;;;368.02;334.00;;;12.90;73.10;;;;;;5097073;28;20204;-75
2021/04/15 12:35:52;;;;;;;341.30;308.70;;;13.00;72.70;;;;;;5089218;28;20211;-76
2021/04/15 12:38:23;;;;;;;371.13;339.50;;;13.20;73.10;;;;;;5090907;28;20204;-75
2021/04/15 12:40:54;;;;;;;246.63;229.10;;;13.30;72.70;;;;;;5092935;28;20226;-77
2021/04/15 12:43:27;;;;;;;193.93;180.60;;;13.20;69.10;;;;;;5087075;28;20248;-77
2021/04/15 12:45:57;;;;;;;143.10;134.40;;;12.90;69.00;;;;;;5091757;28;20295;-77
2021/04/15 12:51:51;;;;;;;108.03;101.60;;;12.70;69.40;;;;;;5053396;28;20216;-74
2021/04/15 12:54:20;;;;;;;99.47;93.97;;;12.40;68.40;;;;;;5047516;28;20292;-75
2021/04/15 12:56:50;;;;;;;70.40;66.35;;;11.90;69.10;;;;;;5046967;28;20202;-75
2021/04/15 12:59:20;;;;;;;71.15;66.95;;;11.80;71.70;;;;;;5043383;28;20205;-74
2021/04/15 13:01:47;;;;;;;50.42;47.25;;;11.90;72.20;;;;;;5045381;28;20213;-75
2021/04/15 13:04:20;;;;;;;41.45;39.10;;;12.10;74.40;;;;;;5045977;28;20617;-75
2021/04/15 13:07:06;;;;;;;45.72;43.17;;;12.20;74.10;;;;;;5048315;28;20244;-75
2021/04/15 13:09:35;;;;;;;47.88;45.08;;;12.60;76.00;;;;;;5042718;28;20229;-75
2021/04/15 13:12:23;;;;;;;53.95;51.08;;;12.90;74.10;;;;;;5042531;28;20200;-75
2021/04/15 13:14:52;;;;;;;38.40;36.38;;;13.00;73.30;;;;;;5046931;28;20205;-75
2021/04/15 13:17:47;;;;;;;17.05;15.50;;;13.00;73.70;;;;;;5048414;28;20213;-75
2021/04/15 13:20:30;;;;;;;44.15;41.72;;;13.00;73.30;;;;;;5047999;28;20202;-75
2021/04/15 13:23:19;;;;;;;42.83;40.17;;;12.80;74.30;;;;;;5070839;28;20197;-75
2021/04/15 13:26:33;;;;;;;52.28;49.33;;;12.60;74.20;;;;;;5091665;28;20207;-75